Time;durP1;ratioP1;P1;durP2;ratioP2;P2;SDS_P1;SDS_P2;PMS_P1;PMS_P2;Temp;Humidity;BMP_temperature;BMP_pressure;BME280_temperature;BME280_humidity;BME280_pressure;Samples;Min_cycle;Max_cycle;Signal;HPM_P1;HPM_P2
2023/09/16 11:15:40;;;;;;;;;;;;;;;23.28;90.35;98631.00;5072855;27;19917;-90
2023/09/16 11:18:10;;;;;;;;;;;;;;;27.46;49.39;98626.66;5066343;28;20376;-89
2023/09/16 11:20:37;;;;;;;;;;;;;;;30.70;40.55;98621.44;5068578;28;19960;-89
2023/09/16 11:23:03;;;;;;;;;;;;;;;31.61;37.72;98609.53;5068847;28;19917;-90
2023/09/16 11:25:33;;;;;;;;;;;;;;;32.34;35.24;98619.59;5065776;28;19929;-88
2023/09/16 11:28:05;;;;;;;;;;;;;;;33.71;32.75;98614.78;5063532;28;20011;-87
2023/09/16 11:30:34;;;;;;;;;;;;;;;33.03;34.54;98613.03;5062711;28;19927;-89
2023/09/16 11:33:00;;;;;;;;;;;;;;;32.23;34.16;98615.69;5065517;28;19921;-87
2023/09/16 11:35:26;;;;;;;;;;;;;;;32.85;32.97;98619.56;5060281;28;19938;-87
2023/09/16 11:37:56;;;;;;;;;;;;;;;31.88;36.95;98604.63;5066389;28;19921;-89
2023/09/16 11:40:40;;;;;;;;;;;;;;;31.70;35.44;98609.53;5068035;28;19917;-87
2023/09/16 11:43:10;;;;;;;;;;;;;;;32.71;34.11;98608.91;5045417;28;19928;-91
2023/09/16 11:45:36;;;;;;;;;;;;;;;32.69;32.64;98617.13;5044046;28;19934;-90
2023/09/16 11:48:03;;;;;;;;;;;;;;;33.36;32.16;98613.75;5047715;28;19956;-89
2023/09/16 11:50:29;;;;;;;;;;;;;;;34.17;31.40;98603.75;5048066;28;19932;-90
2023/09/16 11:52:55;;;;;;;;;;;;;;;32.87;32.55;98597.13;5049020;28;19921;-89
2023/09/16 11:55:21;;;;;;;;;;;;;;;33.11;33.25;98600.03;5048430;28;19925;-89
2023/09/16 11:57:48;;;;;;;;;;;;;;;33.84;31.17;98594.59;5045190;28;20289;-88
2023/09/16 12:00:14;;;;;;;;;;;;;;;32.96;32.74;98593.44;5044580;28;19932;-89
2023/09/16 12:02:43;;;;;;;;;;;;;;;32.83;33.63;98590.81;5044063;28;19960;-90
2023/09/16 12:05:14;;;;;;;;;;;;;;;31.93;34.72;98586.97;5042968;28;19932;-88
2023/09/16 12:07:43;;;;;;;;;;;;;;;34.01;31.55;98581.41;5038625;28;19975;-89
2023/09/16 12:10:09;;;;;;;;;;;;;;;32.66;33.61;98590.44;5045003;28;19949;-89
2023/09/16 12:12:35;;;;;;;;;;;;;;;31.33;35.41;98586.00;5044055;28;19929;-87
2023/09/16 12:15:02;;;;;;;;;;;;;;;32.02;33.32;98580.53;5041310;28;19921;-90
2023/09/16 12:17:30;;;;;;;;;;;;;;;32.57;32.90;98575.47;5046775;28;19925;-89
2023/09/16 12:19:57;;;;;;;;;;;;;;;31.54;34.59;98573.75;5045960;28;20008;-89
2023/09/16 12:22:23;;;;;;;;;;;;;;;33.25;33.55;98577.31;5044443;28;19979;-88
2023/09/16 12:24:53;;;;;;;;;;;;;;;32.46;33.65;98575.97;5045533;28;19925;-91
2023/09/16 12:27:20;;;;;;;;;;;;;;;31.37;35.11;98566.78;5031378;28;19931;-90
2023/09/16 12:29:46;;;;;;;;;;;;;;;32.22;34.07;98571.47;5027726;28;19963;-92
2023/09/16 12:32:14;;;;;;;;;;;;;;;33.02;32.99;98560.25;5028954;28;20377;-90
2023/09/16 12:34:41;;;;;;;;;;;;;;;34.34;30.85;98555.59;5032456;28;19936;-86
2023/09/16 12:37:07;;;;;;;;;;;;;;;34.76;30.63;98553.16;5030848;28;20376;-87
2023/09/16 12:39:34;;;;;;;;;;;;;;;35.31;29.64;98547.47;5030364;28;20463;-90
2023/09/16 12:42:01;;;;;;;;;;;;;;;35.15;29.75;98536.63;5032535;28;19928;-88
2023/09/16 12:44:28;;;;;;;;;;;;;;;33.30;32.40;98550.25;5032271;28;19932;-88
2023/09/16 12:46:57;;;;;;;;;;;;;;;32.93;33.39;98546.03;5029635;28;20023;-88
2023/09/16 12:49:23;;;;;;;;;;;;;;;32.92;32.43;98541.63;5029209;28;19929;-91
2023/09/16 12:51:51;;;;;;;;;;;;;;;31.23;35.94;98536.97;5030255;28;21684;-87
2023/09/16 12:54:17;;;;;;;;;;;;;;;31.76;35.41;98539.50;5030084;28;19929;-90
2023/09/16 12:56:50;;;;;;;;;;;;;;;33.54;32.81;98533.16;5023926;28;20297;-90
2023/09/16 12:59:17;;;;;;;;;;;;;;;34.01;32.84;98530.13;5022615;28;19921;-89
2023/09/16 13:01:43;;;;;;;;;;;;;;;34.30;31.98;98537.91;5029278;28;20379;-89
2023/09/16 13:04:10;;;;;;;;;;;;;;;32.58;34.47;98542.94;5031143;28;20412;-92
2023/09/16 13:06:36;;;;;;;;;;;;;;;32.23;35.03;98536.09;5059420;28;19936;-89
2023/09/16 13:09:03;;;;;;;;;;;;;;;31.56;35.93;98533.53;5023254;28;19929;-89
2023/09/16 13:11:29;;;;;;;;;;;;;;;33.98;33.08;98534.72;5028236;28;20403;-92
2023/09/16 13:13:55;;;;;;;;;;;;;;;34.89;31.98;98527.16;5023181;28;19937;-85
2023/09/16 13:16:34;;;;;;;;;;;;;;;34.94;31.92;98530.06;5026435;28;19925;-91
2023/09/16 13:19:20;;;;;;;;;;;;;;;32.75;34.16;98530.66;5030789;28;19929;-90
2023/09/16 13:21:47;;;;;;;;;;;;;;;31.96;35.79;98529.22;5026705;28;20372;-95
2023/09/16 13:24:13;;;;;;;;;;;;;;;31.82;36.14;98532.72;5030092;28;19964;-89
2023/09/16 13:26:49;;;;;;;;;;;;;;;30.85;37.64;98524.47;5029636;28;19960;-90
2023/09/16 13:29:15;;;;;;;;;;;;;;;31.17;38.45;98521.06;5029759;28;19956;-91
2023/09/16 13:31:41;;;;;;;;;;;;;;;32.33;36.79;98521.38;5029594;28;19921;-90
2023/09/16 13:34:09;;;;;;;;;;;;;;;32.79;34.92;98521.16;5031133;28;19925;-91
2023/09/16 13:36:40;;;;;;;;;;;;;;;32.24;35.49;98529.13;5026946;28;19936;-89
2023/09/16 13:39:14;;;;;;;;;;;;;;;32.07;36.19;98526.66;5018816;28;19979;-91
2023/09/16 13:41:40;;;;;;;;;;;;;;;32.98;35.64;98531.94;5030608;28;19925;-91
2023/09/16 13:44:06;;;;;;;;;;;;;;;33.66;32.93;98517.81;5035602;28;19991;-89
2023/09/16 13:46:32;;;;;;;;;;;;;;;33.68;32.92;98513.22;5031740;28;20319;-89
2023/09/16 13:48:58;;;;;;;;;;;;;;;33.50;33.63;98521.91;5025916;28;20383;-90
2023/09/16 13:51:24;;;;;;;;;;;;;;;33.43;34.68;98517.38;5054060;28;19925;-91
2023/09/16 13:53:50;;;;;;;;;;;;;;;33.12;34.10;98519.84;5027981;28;19925;-87
2023/09/16 13:56:16;;;;;;;;;;;;;;;33.20;35.20;98521.06;5032582;28;20433;-89
2023/09/16 13:58:42;;;;;;;;;;;;;;;33.63;33.94;98507.44;5030665;28;19970;-90
2023/09/16 14:01:08;;;;;;;;;;;;;;;33.94;33.35;98514.19;5031087;28;20008;-90
2023/09/16 14:03:34;;;;;;;;;;;;;;;32.83;35.35;98516.88;5029682;28;20015;-93
2023/09/16 14:06:01;;;;;;;;;;;;;;;33.28;35.10;98502.31;5030825;28;19943;-92
2023/09/16 14:08:28;;;;;;;;;;;;;;;34.27;33.41;98504.66;5029327;28;20051;-94
2023/09/16 14:10:54;;;;;;;;;;;;;;;33.33;34.81;98507.34;5057193;28;19920;-93
2023/09/16 14:13:20;;;;;;;;;;;;;;;34.67;32.70;98499.09;5028968;28;19929;-92
2023/09/16 14:15:46;;;;;;;;;;;;;;;33.40;34.36;98491.94;5054524;28;19940;-94
2023/09/16 14:18:12;;;;;;;;;;;;;;;32.94;36.04;98496.41;5024272;28;19926;-93
2023/09/16 14:20:38;;;;;;;;;;;;;;;33.68;35.40;98478.25;5029982;28;19921;-95
2023/09/16 14:23:05;;;;;;;;;;;;;;;32.96;35.35;98494.63;5023970;28;19960;-91
2023/09/16 14:25:33;;;;;;;;;;;;;;;32.74;36.06;98488.50;5024294;28;19929;-93
2023/09/16 14:28:00;;;;;;;;;;;;;;;33.46;34.56;98483.50;5033965;28;19917;-92
2023/09/16 14:30:26;;;;;;;;;;;;;;;34.66;32.95;98469.78;5040396;28;19987;-96
2023/09/16 14:32:52;;;;;;;;;;;;;;;34.28;33.52;98478.53;5041564;28;19967;-95
2023/09/16 14:35:18;;;;;;;;;;;;;;;34.71;32.63;98477.63;5029326;28;19957;-94
2023/09/16 14:37:46;;;;;;;;;;;;;;;33.23;35.03;98483.09;5033083;28;19921;-96
2023/09/16 14:40:13;;;;;;;;;;;;;;;33.19;35.05;98476.78;5044697;28;19917;-95
2023/09/16 14:42:40;;;;;;;;;;;;;;;33.91;34.63;98475.28;5031382;28;19918;-96
2023/09/16 14:45:07;;;;;;;;;;;;;;;33.99;33.92;98472.81;5033647;28;19937;-96
2023/09/16 14:47:33;;;;;;;;;;;;;;;34.00;34.46;98472.31;5034341;28;20280;-93
2023/09/16 14:49:59;;;;;;;;;;;;;;;33.42;34.77;98469.47;5027772;28;20042;-93
2023/09/16 14:52:26;;;;;;;;;;;;;;;34.28;33.20;98467.13;5023281;28;19928;-94
2023/09/16 14:54:55;;;;;;;;;;;;;;;33.94;34.00;98457.22;5024185;28;20018;-91
2023/09/16 14:57:21;;;;;;;;;;;;;;;33.59;34.46;98462.03;5029537;28;19925;-94
2023/09/16 14:59:47;;;;;;;;;;;;;;;34.51;33.47;98456.81;5024660;28;19924;-88
2023/09/16 15:02:14;;;;;;;;;;;;;;;35.07;32.39;98459.19;5031799;28;19921;-89
2023/09/16 15:04:40;;;;;;;;;;;;;;;35.57;31.80;98462.59;5033356;28;20003;-90
2023/09/16 15:07:06;;;;;;;;;;;;;;;35.71;31.87;98461.69;5034016;28;20012;-90
2023/09/16 15:09:32;;;;;;;;;;;;;;;34.82;32.47;98464.81;5021845;28;19960;-89
2023/09/16 15:11:58;;;;;;;;;;;;;;;34.96;32.99;98463.94;5035653;28;19943;-90
2023/09/16 15:14:24;;;;;;;;;;;;;;;35.13;32.32;98454.31;5029181;28;19925;-91
2023/09/16 15:16:50;;;;;;;;;;;;;;;33.55;34.98;98463.50;5025668;28;19963;-92
2023/09/16 15:19:16;;;;;;;;;;;;;;;35.00;33.20;98453.09;5035188;28;19917;-95
2023/09/16 15:21:42;;;;;;;;;;;;;;;35.09;32.24;98462.31;5031918;28;19927;-90
2023/09/16 15:24:10;;;;;;;;;;;;;;;34.91;32.82;98453.25;5030515;28;20287;-91
2023/09/16 15:26:36;;;;;;;;;;;;;;;35.35;31.95;98454.56;5028187;28;19921;-90
2023/09/16 15:29:03;;;;;;;;;;;;;;;34.59;33.21;98463.69;5031361;28;19928;-91
2023/09/16 15:31:31;;;;;;;;;;;;;;;33.94;33.74;98445.03;5029735;28;20376;-89
2023/09/16 15:33:57;;;;;;;;;;;;;;;35.24;32.43;98456.53;5031834;28;20431;-91
2023/09/16 15:36:23;;;;;;;;;;;;;;;36.14;30.87;98458.97;5032125;28;19952;-91
2023/09/16 15:38:50;;;;;;;;;;;;;;;36.28;31.17;98452.31;5030237;28;19976;-91
2023/09/16 15:41:16;;;;;;;;;;;;;;;36.24;30.98;98457.50;5032438;28;19929;-91
2023/09/16 15:43:42;;;;;;;;;;;;;;;33.78;34.14;98457.72;5030830;28;19960;-88
2023/09/16 15:46:09;;;;;;;;;;;;;;;34.31;33.70;98463.25;5034063;28;19960;-91
2023/09/16 15:48:35;;;;;;;;;;;;;;;34.28;33.75;98463.47;5025839;28;20434;-92
2023/09/16 15:51:01;;;;;;;;;;;;;;;33.89;34.64;98462.81;5031631;28;19921;-89
2023/09/16 15:53:28;;;;;;;;;;;;;;;33.43;35.29;98466.13;5026589;28;19929;-92
2023/09/16 15:55:54;;;;;;;;;;;;;;;33.60;35.48;98457.94;5027480;28;20391;-90
2023/09/16 15:58:21;;;;;;;;;;;;;;;34.54;33.82;98465.19;5043449;28;20013;-90
2023/09/16 16:00:51;;;;;;;;;;;;;;;33.36;35.58;98449.44;5040858;28;20277;-89
2023/09/16 16:03:20;;;;;;;;;;;;;;;32.88;36.64;98453.63;5036839;28;20399;-90
2023/09/16 16:05:47;;;;;;;;;;;;;;;33.46;35.59;98449.34;5035463;28;20467;-93
2023/09/16 16:08:13;;;;;;;;;;;;;;;34.00;34.55;98449.53;5037402;28;20280;-92
2023/09/16 16:10:40;;;;;;;;;;;;;;;33.48;35.05;98443.94;5036394;28;19925;-93
2023/09/16 16:13:06;;;;;;;;;;;;;;;33.34;35.55;98440.59;5035925;28;20448;-90
2023/09/16 16:15:32;;;;;;;;;;;;;;;32.81;36.87;98438.97;5038190;28;19928;-91
2023/09/16 16:17:59;;;;;;;;;;;;;;;32.92;36.44;98440.00;5038010;28;19921;-92
2023/09/16 16:20:26;;;;;;;;;;;;;;;33.95;34.82;98435.22;5034308;28;20431;-93
2023/09/16 16:22:52;;;;;;;;;;;;;;;33.38;35.30;98435.50;5030000;28;19945;-91
2023/09/16 16:25:18;;;;;;;;;;;;;;;33.30;35.74;98431.44;5034524;28;19968;-91
2023/09/16 16:27:44;;;;;;;;;;;;;;;34.02;34.15;98426.25;5035165;28;19925;-90
2023/09/16 16:30:12;;;;;;;;;;;;;;;33.38;34.98;98421.25;5036053;28;20342;-94
2023/09/16 16:32:38;;;;;;;;;;;;;;;32.73;36.02;98430.81;5035771;28;19975;-95
2023/09/16 16:35:04;;;;;;;;;;;;;;;32.54;36.98;98432.22;5038640;28;19921;-96
2023/09/16 16:37:30;;;;;;;;;;;;;;;31.94;37.80;98432.31;5038770;28;19947;-96
2023/09/16 16:39:56;;;;;;;;;;;;;;;30.28;41.15;98432.50;5035372;28;19921;-91
2023/09/16 16:42:22;;;;;;;;;;;;;;;31.60;38.71;98429.13;5067847;28;20399;-89
2023/09/16 16:44:48;;;;;;;;;;;;;;;31.10;39.28;98428.56;5035496;28;19925;-92
2023/09/16 16:47:14;;;;;;;;;;;;;;;30.96;40.21;98422.72;5043351;28;19921;-91
2023/09/16 16:49:43;;;;;;;;;;;;;;;31.45;39.33;98423.31;5035478;28;19928;-92
2023/09/16 16:52:09;;;;;;;;;;;;;;;31.78;38.36;98426.22;5035107;28;20301;-91
2023/09/16 16:54:35;;;;;;;;;;;;;;;32.24;37.70;98424.78;5034026;28;20044;-92
2023/09/16 16:57:02;;;;;;;;;;;;;;;31.73;37.86;98421.19;5034325;28;20407;-91
2023/09/16 16:59:28;;;;;;;;;;;;;;;32.55;36.42;98419.56;5046542;28;19943;-88
2023/09/16 17:01:54;;;;;;;;;;;;;;;31.30;38.49;98408.97;5036380;28;20376;-90
2023/09/16 17:04:20;;;;;;;;;;;;;;;30.78;40.03;98412.16;5034449;28;19932;-90
2023/09/16 17:06:46;;;;;;;;;;;;;;;30.80;39.98;98414.50;5032575;28;20346;-90
2023/09/16 17:09:12;;;;;;;;;;;;;;;32.13;37.30;98415.22;5035158;28;19939;-93
2023/09/16 17:11:38;;;;;;;;;;;;;;;32.68;35.87;98407.94;5023622;28;20397;-89
2023/09/16 17:14:05;;;;;;;;;;;;;;;31.76;38.55;98417.41;5020636;28;20016;-92
2023/09/16 17:16:31;;;;;;;;;;;;;;;31.60;38.92;98426.28;5035283;28;19917;-91
2023/09/16 17:18:58;;;;;;;;;;;;;;;31.73;38.24;98416.31;5033556;28;19956;-90
2023/09/16 17:21:24;;;;;;;;;;;;;;;30.28;41.56;98412.66;5032510;28;19935;-92
2023/09/16 17:23:50;;;;;;;;;;;;;;;31.46;39.18;98424.13;5045177;28;19932;-93
2023/09/16 17:26:16;;;;;;;;;;;;;;;30.46;41.50;98432.56;5035067;28;20343;-94
2023/09/16 17:28:43;;;;;;;;;;;;;;;29.61;44.07;98438.81;5034764;28;19963;-93
2023/09/16 17:31:09;;;;;;;;;;;;;;;30.57;41.87;98433.69;5032505;28;20380;-91
2023/09/16 17:33:35;;;;;;;;;;;;;;;30.68;41.32;98442.53;5041527;28;19925;-90
2023/09/16 17:36:01;;;;;;;;;;;;;;;31.35;39.66;98441.59;5033803;28;19927;-93
2023/09/16 17:38:27;;;;;;;;;;;;;;;31.51;38.87;98435.59;5034198;28;19940;-91
2023/09/16 17:40:53;;;;;;;;;;;;;;;32.19;37.81;98448.16;5023606;28;19921;-92
2023/09/16 17:43:19;;;;;;;;;;;;;;;31.41;38.92;98440.47;5016473;28;19922;-91
2023/09/16 17:45:45;;;;;;;;;;;;;;;30.59;41.19;98447.41;5033764;28;20365;-93
2023/09/16 17:48:11;;;;;;;;;;;;;;;30.75;40.75;98445.06;5031565;28;20553;-90
2023/09/16 17:50:37;;;;;;;;;;;;;;;30.73;40.75;98441.91;5033039;28;20016;-92
2023/09/16 17:53:03;;;;;;;;;;;;;;;30.43;40.88;98445.66;5034193;28;19999;-90
2023/09/16 17:55:29;;;;;;;;;;;;;;;29.87;42.76;98447.94;5027593;28;20016;-90
2023/09/16 17:57:55;;;;;;;;;;;;;;;30.52;41.47;98442.84;5042151;28;20325;-91
2023/09/16 18:00:21;;;;;;;;;;;;;;;30.53;41.15;98447.22;5030984;28;20011;-90
2023/09/16 18:02:47;;;;;;;;;;;;;;;30.40;41.02;98440.91;5033101;28;20009;-90
2023/09/16 18:05:14;;;;;;;;;;;;;;;30.94;40.13;98433.75;5041705;28;19964;-90
2023/09/16 18:07:40;;;;;;;;;;;;;;;31.36;39.21;98440.34;5032871;28;19971;-91
2023/09/16 18:10:06;;;;;;;;;;;;;;;30.98;39.86;98426.66;5044758;28;19926;-91
2023/09/16 18:12:32;;;;;;;;;;;;;;;31.22;39.23;98426.81;5026721;28;19929;-89
2023/09/16 18:14:58;;;;;;;;;;;;;;;31.77;37.83;98433.94;5018482;28;19932;-90
2023/09/16 18:17:25;;;;;;;;;;;;;;;30.54;40.01;98428.97;5031777;28;19921;-89
2023/09/16 18:19:51;;;;;;;;;;;;;;;31.47;38.33;98437.81;5021719;28;19928;-92
2023/09/16 18:22:17;;;;;;;;;;;;;;;31.69;37.39;98446.13;5026116;28;19964;-91
2023/09/16 18:24:43;;;;;;;;;;;;;;;32.52;36.39;98445.34;5027692;28;19920;-91
2023/09/16 18:27:09;;;;;;;;;;;;;;;32.94;35.21;98445.97;5034475;28;19925;-90
2023/09/16 18:29:36;;;;;;;;;;;;;;;32.40;36.37;98446.31;5028582;28;20381;-91
2023/09/16 18:32:02;;;;;;;;;;;;;;;31.81;37.04;98445.91;5026981;28;19921;-91
2023/09/16 18:34:28;;;;;;;;;;;;;;;32.45;35.98;98445.66;5028761;28;19955;-90
2023/09/16 18:36:54;;;;;;;;;;;;;;;32.74;35.44;98435.22;5032489;28;19928;-90
2023/09/16 18:39:20;;;;;;;;;;;;;;;32.89;35.40;98443.81;5030120;28;20008;-91
2023/09/16 18:41:47;;;;;;;;;;;;;;;33.31;34.13;98438.72;5027563;28;19921;-92
2023/09/16 18:44:19;;;;;;;;;;;;;;;33.04;34.60;98438.19;5032011;28;19925;-91
2023/09/16 18:46:46;;;;;;;;;;;;;;;33.69;33.20;98434.25;5030035;28;19936;-91
2023/09/16 18:49:12;;;;;;;;;;;;;;;33.76;33.22;98439.53;5029676;28;19921;-89
2023/09/16 18:51:38;;;;;;;;;;;;;;;33.76;33.18;98431.00;5026719;28;20039;-92
2023/09/16 18:54:04;;;;;;;;;;;;;;;33.58;33.42;98432.00;5028696;28;19921;-89
2023/09/16 18:56:31;;;;;;;;;;;;;;;33.58;33.45;98425.50;5031767;28;19951;-89
2023/09/16 18:58:57;;;;;;;;;;;;;;;33.14;34.14;98431.16;5040130;28;20339;-90
2023/09/16 19:01:24;;;;;;;;;;;;;;;33.35;33.83;98435.69;5029763;28;19925;-89
2023/09/16 19:03:51;;;;;;;;;;;;;;;33.33;33.78;98430.47;5028722;28;20410;-89
2023/09/16 19:06:17;;;;;;;;;;;;;;;33.83;33.02;98436.31;5051491;28;19965;-90
2023/09/16 19:08:43;;;;;;;;;;;;;;;33.73;32.92;98434.81;5029071;28;19979;-89
2023/09/16 19:11:09;;;;;;;;;;;;;;;34.13;32.28;98434.22;5030276;28;20451;-90
2023/09/16 19:13:35;;;;;;;;;;;;;;;34.01;32.54;98436.88;5028430;28;20307;-89
2023/09/16 19:16:01;;;;;;;;;;;;;;;34.11;32.44;98433.94;5031006;28;19945;-89
2023/09/16 19:18:28;;;;;;;;;;;;;;;34.24;31.81;98440.88;5027489;28;19987;-89
2023/09/16 19:20:54;;;;;;;;;;;;;;;34.29;31.68;98443.00;5023153;28;19917;-89
2023/09/16 19:23:20;;;;;;;;;;;;;;;34.56;31.49;98431.28;5031031;28;19921;-90
2023/09/16 19:25:50;;;;;;;;;;;;;;;34.42;31.32;98429.22;5030663;28;19932;-90
2023/09/16 19:28:16;;;;;;;;;;;;;;;34.68;31.08;98421.56;5033807;28;19924;-90
2023/09/16 19:30:42;;;;;;;;;;;;;;;34.88;30.58;98426.47;5026176;28;19925;-90
2023/09/16 19:33:08;;;;;;;;;;;;;;;34.85;30.53;98435.25;5022685;28;19921;-90
2023/09/16 19:35:34;;;;;;;;;;;;;;;35.01;30.19;98434.69;5028339;28;19956;-90
2023/09/16 19:38:03;;;;;;;;;;;;;;;35.13;30.14;98437.19;5035384;28;19929;-90
2023/09/16 19:40:29;;;;;;;;;;;;;;;35.00;29.80;98435.97;5033439;28;19923;-92
2023/09/16 19:42:55;;;;;;;;;;;;;;;34.94;30.16;98437.97;5033470;28;19925;-92
2023/09/16 19:45:21;;;;;;;;;;;;;;;34.84;30.19;98436.53;5031336;28;20416;-92
2023/09/16 19:47:47;;;;;;;;;;;;;;;34.73;30.12;98440.81;5034135;28;20017;-93
2023/09/16 19:50:14;;;;;;;;;;;;;;;34.88;30.18;98442.81;5035036;28;19961;-92
2023/09/16 19:52:40;;;;;;;;;;;;;;;34.84;30.29;98439.41;5035381;28;19921;-92
2023/09/16 19:55:07;;;;;;;;;;;;;;;34.68;30.56;98447.22;5039562;28;20399;-92
2023/09/16 19:57:33;;;;;;;;;;;;;;;34.56;30.87;98439.81;5036526;28;19928;-92
2023/09/16 19:59:59;;;;;;;;;;;;;;;34.69;30.50;98434.53;5028862;28;19921;-91
2023/09/16 20:02:25;;;;;;;;;;;;;;;34.69;30.23;98436.59;5033589;28;20396;-91
2023/09/16 20:04:51;;;;;;;;;;;;;;;34.50;30.47;98440.97;5036143;28;19926;-91
2023/09/16 20:07:17;;;;;;;;;;;;;;;34.51;29.99;98439.72;5036955;28;19921;-90
2023/09/16 20:09:44;;;;;;;;;;;;;;;34.56;30.54;98442.69;5036047;28;19999;-90
2023/09/16 20:12:10;;;;;;;;;;;;;;;34.55;30.21;98440.31;5032655;28;20390;-91
2023/09/16 20:14:36;;;;;;;;;;;;;;;34.63;30.06;98441.47;5032119;28;19990;-89
2023/09/16 20:17:02;;;;;;;;;;;;;;;34.60;30.47;98437.53;5040652;28;19955;-91
2023/09/16 20:19:29;;;;;;;;;;;;;;;34.59;30.29;98441.66;5066444;28;19986;-94
2023/09/16 20:21:55;;;;;;;;;;;;;;;34.22;30.11;98451.19;5033593;28;19921;-94
2023/09/16 20:24:23;;;;;;;;;;;;;;;33.99;30.09;98441.47;5021247;28;19976;-90
2023/09/16 20:26:49;;;;;;;;;;;;;;;33.61;30.64;98445.25;5019872;28;19936;-91
2023/09/16 20:29:15;;;;;;;;;;;;;;;33.42;31.54;98441.75;5031610;28;19976;-90
2023/09/16 20:31:41;;;;;;;;;;;;;;;33.60;30.85;98440.03;5032383;28;19925;-93
2023/09/16 20:34:07;;;;;;;;;;;;;;;33.73;31.04;98438.47;5028484;28;19925;-92
2023/09/16 20:36:33;;;;;;;;;;;;;;;33.79;30.91;98438.56;5016658;28;19925;-90
2023/09/16 20:38:59;;;;;;;;;;;;;;;33.79;31.68;98441.41;5029946;28;19929;-90
2023/09/16 20:41:25;;;;;;;;;;;;;;;33.87;30.91;98434.81;5034932;28;19952;-91
2023/09/16 20:43:51;;;;;;;;;;;;;;;34.03;31.02;98440.03;5031605;28;19925;-90
2023/09/16 20:46:17;;;;;;;;;;;;;;;34.12;31.12;98429.81;5034606;28;20381;-90
2023/09/16 20:48:44;;;;;;;;;;;;;;;34.24;30.66;98437.25;5030584;28;20359;-90
2023/09/16 20:51:10;;;;;;;;;;;;;;;34.24;30.66;98435.16;5035116;28;19928;-90
2023/09/16 20:53:36;;;;;;;;;;;;;;;34.35;30.53;98432.50;5033572;28;19921;-90
2023/09/16 20:56:03;;;;;;;;;;;;;;;34.47;30.07;98445.59;5034326;28;19928;-91
2023/09/16 20:58:29;;;;;;;;;;;;;;;34.42;30.26;98437.78;5033836;28;19921;-90
2023/09/16 21:00:55;;;;;;;;;;;;;;;34.16;30.42;98436.88;5029088;28;20040;-91
2023/09/16 21:03:21;;;;;;;;;;;;;;;34.37;29.84;98437.69;5028881;28;19991;-90
2023/09/16 21:05:47;;;;;;;;;;;;;;;34.19;29.91;98441.59;5032480;28;19927;-91
2023/09/16 21:08:14;;;;;;;;;;;;;;;34.09;30.20;98440.13;5030246;28;20004;-89
2023/09/16 21:10:40;;;;;;;;;;;;;;;34.30;29.72;98440.97;5033267;28;19925;-91
2023/09/16 21:13:06;;;;;;;;;;;;;;;34.32;29.37;98446.94;5032056;28;19928;-90
2023/09/16 21:15:32;;;;;;;;;;;;;;;33.88;29.88;98444.16;5028820;28;19929;-90
2023/09/16 21:17:58;;;;;;;;;;;;;;;33.55;29.80;98443.56;5032390;28;19968;-90
2023/09/16 21:20:24;;;;;;;;;;;;;;;33.18;30.53;98434.59;5024942;28;19917;-90
2023/09/16 21:22:50;;;;;;;;;;;;;;;33.47;30.03;98437.44;5031797;28;19944;-90
2023/09/16 21:25:16;;;;;;;;;;;;;;;33.63;29.94;98439.06;5024716;28;20289;-90
2023/09/16 21:27:43;;;;;;;;;;;;;;;33.88;29.34;98427.84;5033189;28;19921;-89
2023/09/16 21:30:09;;;;;;;;;;;;;;;33.86;29.63;98435.31;5027728;28;19927;-90
2023/09/16 21:32:35;;;;;;;;;;;;;;;33.85;29.36;98430.88;5035458;28;19913;-90
2023/09/16 21:35:02;;;;;;;;;;;;;;;33.89;29.81;98429.41;5034344;28;19936;-90
2023/09/16 21:37:28;;;;;;;;;;;;;;;33.99;28.85;98435.78;5032373;28;19968;-90
2023/09/16 21:39:54;;;;;;;;;;;;;;;33.99;29.17;98432.94;5033854;28;19921;-90
2023/09/16 21:42:20;;;;;;;;;;;;;;;33.97;28.88;98442.00;5034679;28;19979;-89
2023/09/16 21:44:48;;;;;;;;;;;;;;;33.75;29.33;98438.00;5032362;28;19925;-89
2023/09/16 21:47:15;;;;;;;;;;;;;;;33.64;29.57;98441.41;5031060;28;19921;-90
2023/09/16 21:49:41;;;;;;;;;;;;;;;33.82;29.22;98444.06;5034031;28;19925;-89
2023/09/16 21:52:07;;;;;;;;;;;;;;;33.88;29.75;98439.25;5038996;28;19925;-92
2023/09/16 21:54:33;;;;;;;;;;;;;;;34.05;29.37;98442.41;5033739;28;19955;-91
2023/09/16 21:56:59;;;;;;;;;;;;;;;33.79;29.47;98435.72;5034181;28;20299;-91
2023/09/16 21:59:25;;;;;;;;;;;;;;;33.72;29.60;98438.97;5032004;28;19936;-91
2023/09/16 22:01:51;;;;;;;;;;;;;;;33.81;29.69;98444.56;5029892;28;19924;-91
2023/09/16 22:04:17;;;;;;;;;;;;;;;33.84;29.51;98441.50;5032358;28;20008;-91
2023/09/16 22:06:43;;;;;;;;;;;;;;;33.98;29.50;98448.47;5029119;28;20313;-91
2023/09/16 22:09:09;;;;;;;;;;;;;;;33.99;29.44;98442.28;5033011;28;19921;-91
2023/09/16 22:11:35;;;;;;;;;;;;;;;34.04;29.36;98455.88;5031374;28;19925;-91
2023/09/16 22:14:01;;;;;;;;;;;;;;;34.13;28.88;98452.09;5018079;28;20052;-91
2023/09/16 22:16:27;;;;;;;;;;;;;;;33.82;29.73;98452.59;5021271;28;19949;-92
2023/09/16 22:18:53;;;;;;;;;;;;;;;33.27;29.85;98443.81;5030390;28;21215;-91
2023/09/16 22:21:19;;;;;;;;;;;;;;;33.03;29.91;98448.78;5029494;28;20409;-92
2023/09/16 22:23:47;;;;;;;;;;;;;;;33.28;29.45;98439.69;5032897;28;19944;-91
2023/09/16 22:26:15;;;;;;;;;;;;;;;32.84;30.21;98441.63;5030068;28;19961;-91
2023/09/16 22:28:41;;;;;;;;;;;;;;;33.01;30.49;98444.81;5036390;28;19939;-91
2023/09/16 22:31:12;;;;;;;;;;;;;;;33.31;29.50;98440.78;5026061;28;19921;-92
2023/09/16 22:33:38;;;;;;;;;;;;;;;33.43;29.38;98443.34;5040376;28;20331;-91
2023/09/16 22:36:04;;;;;;;;;;;;;;;33.40;29.74;98441.47;5031799;28;19921;-91
2023/09/16 22:38:30;;;;;;;;;;;;;;;33.33;30.15;98447.56;5033699;28;19941;-91
2023/09/16 22:40:56;;;;;;;;;;;;;;;33.19;30.25;98447.53;5032313;28;19921;-91
2023/09/16 22:43:22;;;;;;;;;;;;;;;32.78;29.97;98445.63;5030296;28;20007;-92
2023/09/16 22:45:50;;;;;;;;;;;;;;;33.04;30.40;98446.72;5030397;28;19921;-91
2023/09/16 22:48:16;;;;;;;;;;;;;;;33.13;30.15;98447.44;5028637;28;19928;-92
2023/09/16 22:50:42;;;;;;;;;;;;;;;33.20;30.20;98446.25;5028159;28;19921;-92
2023/09/16 22:53:08;;;;;;;;;;;;;;;33.46;29.47;98449.34;5030188;28;19921;-91
2023/09/16 22:55:34;;;;;;;;;;;;;;;33.54;28.79;98442.78;5030735;28;20292;-92
2023/09/16 22:58:00;;;;;;;;;;;;;;;33.27;29.17;98449.53;5020351;28;19921;-91
2023/09/16 23:00:26;;;;;;;;;;;;;;;33.24;29.86;98444.00;5032369;28;19928;-91
2023/09/16 23:02:52;;;;;;;;;;;;;;;33.21;29.85;98447.84;5031773;28;19921;-91
2023/09/16 23:05:18;;;;;;;;;;;;;;;33.20;29.35;98438.50;5032609;28;19928;-91
2023/09/16 23:07:44;;;;;;;;;;;;;;;33.42;29.28;98441.75;5033281;28;19928;-90
2023/09/16 23:10:10;;;;;;;;;;;;;;;33.34;29.23;98443.44;5030034;28;19932;-91
2023/09/16 23:12:36;;;;;;;;;;;;;;;33.37;29.14;98436.00;5033038;28;19917;-90
2023/09/16 23:15:02;;;;;;;;;;;;;;;33.19;28.90;98438.97;5027580;28;19925;-89
2023/09/16 23:17:28;;;;;;;;;;;;;;;33.34;28.69;98434.09;5033162;28;19921;-88
2023/09/16 23:19:54;;;;;;;;;;;;;;;33.21;29.24;98431.53;5032083;28;19929;-89
2023/09/16 23:22:20;;;;;;;;;;;;;;;33.22;29.47;98429.47;5031566;28;19933;-89
2023/09/16 23:24:46;;;;;;;;;;;;;;;33.43;28.98;98428.31;5063404;28;19928;-89
2023/09/16 23:27:12;;;;;;;;;;;;;;;33.39;28.49;98433.44;5032699;28;19947;-88
2023/09/16 23:29:38;;;;;;;;;;;;;;;33.42;27.90;98436.06;5030981;28;19921;-89
2023/09/16 23:32:04;;;;;;;;;;;;;;;33.50;27.99;98427.13;5031316;28;19947;-91
2023/09/16 23:34:32;;;;;;;;;;;;;;;32.70;28.47;98433.81;5028678;28;19952;-91
2023/09/16 23:36:59;;;;;;;;;;;;;;;32.32;29.05;98428.06;5027956;28;19929;-92
2023/09/16 23:39:26;;;;;;;;;;;;;;;32.12;29.68;98436.34;5018931;28;20373;-91
2023/09/16 23:41:52;;;;;;;;;;;;;;;32.34;30.13;98434.03;5023636;28;19928;-91
2023/09/16 23:44:18;;;;;;;;;;;;;;;32.59;29.69;98433.59;5031086;28;19934;-92
2023/09/16 23:46:44;;;;;;;;;;;;;;;32.74;29.23;98431.59;5032425;28;20300;-93
2023/09/16 23:49:11;;;;;;;;;;;;;;;32.71;29.59;98435.41;5033108;28;19935;-93
2023/09/16 23:51:37;;;;;;;;;;;;;;;32.68;29.54;98434.31;5031198;28;19921;-94
2023/09/16 23:54:03;;;;;;;;;;;;;;;32.75;29.51;98427.47;5025338;28;19951;-93
2023/09/16 23:56:29;;;;;;;;;;;;;;;32.85;29.26;98428.19;5032805;28;19976;-93
2023/09/16 23:58:55;;;;;;;;;;;;;;;32.72;29.66;98431.31;5033041;28;19917;-92
